createdAt,value
2022-10-20T00:00:43.959Z,7.50
2022-10-20T00:03:34.830Z,8.20
2022-10-20T00:06:11.666Z,8.20
2022-10-20T00:08:44.771Z,8.30
2022-10-20T00:11:19.329Z,8.40
2022-10-20T00:13:52.899Z,7.90
2022-10-20T00:16:26.022Z,7.40
2022-10-20T00:18:57.519Z,8.20
2022-10-20T00:21:30.837Z,7.80
2022-10-20T00:24:04.866Z,8.00
2022-10-20T00:26:36.345Z,8.10
2022-10-20T00:29:07.800Z,7.20
2022-10-20T00:31:39.907Z,6.30
2022-10-20T00:34:11.473Z,5.80
2022-10-20T00:36:45.333Z,6.40
2022-10-20T00:39:20.259Z,7.10
2022-10-20T00:41:51.669Z,6.60
2022-10-20T00:44:52.085Z,6.80
2022-10-20T00:47:34.696Z,7.40
2022-10-20T00:50:12.046Z,8.60
2022-10-20T00:52:46.004Z,8.50
2022-10-20T00:55:22.389Z,8.20
2022-10-20T00:57:56.939Z,7.20
2022-10-20T01:00:29.222Z,7.60
2022-10-20T01:03:02.796Z,8.30
2022-10-20T01:08:04.219Z,8.80
2022-10-20T01:10:41.913Z,9.20
2022-10-20T01:13:27.266Z,9.50
2022-10-20T01:16:04.906Z,8.40
2022-10-20T01:18:44.510Z,8.50
2022-10-20T01:21:37.461Z,9.30
2022-10-20T01:24:50.866Z,8.00
2022-10-20T01:27:33.749Z,6.30
2022-10-20T01:30:15.503Z,7.10
2022-10-20T01:32:57.583Z,6.20
2022-10-20T01:35:42.009Z,6.10
2022-10-20T01:38:23.704Z,6.50
2022-10-20T01:41:01.781Z,6.20
2022-10-20T01:43:37.910Z,9.70
2022-10-20T01:46:12.678Z,10.20
2022-10-20T01:48:45.020Z,11.40
2022-10-20T01:51:16.457Z,12.40
2022-10-20T01:53:47.920Z,12.80
2022-10-20T01:56:27.896Z,13.70
2022-10-20T01:59:15.993Z,13.90
2022-10-20T02:02:06.940Z,14.80
2022-10-20T02:04:52.815Z,15.80
2022-10-20T02:07:29.609Z,16.50
2022-10-20T02:10:06.250Z,16.60
2022-10-20T02:12:45.374Z,15.10
2022-10-20T02:15:23.971Z,15.60
2022-10-20T02:18:00.510Z,16.10
2022-10-20T02:20:33.140Z,16.80
2022-10-20T02:23:07.413Z,12.40
2022-10-20T02:25:42.506Z,11.30
2022-10-20T02:28:16.887Z,11.10
2022-10-20T02:30:49.270Z,11.10
2022-10-20T02:33:23.880Z,11.10
2022-10-20T02:36:01.447Z,11.70
2022-10-20T02:38:33.051Z,10.80
2022-10-20T02:41:04.484Z,10.50
2022-10-20T02:43:35.919Z,11.50
2022-10-20T02:46:07.645Z,12.80
2022-10-20T02:48:39.321Z,12.20
2022-10-20T02:51:10.879Z,13.10
2022-10-20T02:53:42.279Z,12.40
2022-10-20T02:56:13.737Z,13.60
2022-10-20T02:58:45.164Z,14.30
2022-10-20T03:01:16.688Z,13.80
2022-10-20T03:03:48.358Z,13.70
2022-10-20T03:06:19.826Z,12.30
2022-10-20T03:08:51.244Z,13.90
2022-10-20T03:11:22.858Z,14.20
2022-10-20T03:13:54.591Z,14.90
2022-10-20T03:16:26.130Z,12.70
2022-10-20T03:19:00.306Z,13.40
2022-10-20T03:21:35.712Z,11.40
2022-10-20T03:24:07.657Z,10.70
2022-10-20T03:26:39.340Z,10.70
2022-10-20T03:29:10.826Z,9.80
2022-10-20T03:31:42.330Z,10.40
2022-10-20T03:34:13.904Z,9.90
2022-10-20T03:36:45.317Z,10.30
2022-10-20T03:39:16.719Z,10.30
2022-10-20T03:41:48.140Z,13.70
2022-10-20T03:44:19.554Z,15.00
2022-10-20T03:46:50.957Z,15.60
2022-10-20T03:49:22.707Z,15.30
2022-10-20T03:51:54.245Z,15.40
2022-10-20T03:54:25.773Z,14.10
2022-10-20T03:56:57.227Z,12.40
2022-10-20T03:59:30.523Z,11.50
2022-10-20T04:02:02.690Z,12.10
2022-10-20T04:04:34.307Z,10.00
2022-10-20T04:07:05.755Z,9.70
2022-10-20T04:09:37.154Z,9.00
2022-10-20T04:12:08.762Z,12.00
2022-10-20T04:14:41.819Z,14.70
2022-10-20T04:17:13.235Z,18.00
2022-10-20T04:19:44.714Z,41.40
2022-10-20T04:22:16.647Z,10.60
2022-10-20T04:24:48.099Z,8.60
2022-10-20T04:27:19.531Z,10.20
2022-10-20T04:29:50.988Z,17.30
2022-10-20T04:32:22.433Z,26.30
2022-10-20T04:34:53.957Z,19.10
2022-10-20T04:37:25.595Z,29.60
2022-10-20T04:39:57.766Z,17.80
2022-10-20T04:42:29.287Z,8.80
2022-10-20T04:45:00.730Z,8.00
2022-10-20T04:47:38.251Z,10.10
2022-10-20T04:50:11.538Z,24.90
2022-10-20T04:52:43.067Z,11.50
2022-10-20T04:55:14.597Z,13.90
2022-10-20T04:57:46.077Z,8.20
2022-10-20T05:00:18.390Z,59.70
2022-10-20T05:02:49.882Z,16.90
2022-10-20T05:05:21.392Z,18.70
2022-10-20T05:07:52.806Z,10.50
2022-10-20T05:10:24.406Z,8.40
2022-10-20T05:12:55.908Z,6.80
2022-10-20T05:15:27.454Z,7.80
2022-10-20T05:17:59.061Z,7.00
2022-10-20T05:20:36.775Z,12.30
2022-10-20T05:23:13.398Z,14.80
2022-10-20T05:25:44.897Z,12.00
2022-10-20T05:28:16.415Z,12.00
2022-10-20T05:30:47.906Z,10.30
2022-10-20T05:33:19.394Z,12.50
2022-10-20T05:35:50.913Z,12.00
2022-10-20T05:38:22.333Z,13.00
2022-10-20T05:40:53.763Z,14.80
2022-10-20T05:43:25.209Z,10.80
2022-10-20T05:45:57.696Z,9.00
2022-10-20T05:48:29.162Z,11.20
2022-10-20T05:51:14.579Z,11.30
2022-10-20T05:53:48.026Z,15.00
2022-10-20T05:56:22.084Z,10.80
2022-10-20T05:58:54.319Z,15.80
2022-10-20T06:01:28.163Z,10.10
2022-10-20T06:04:01.328Z,8.60
2022-10-20T06:06:34.306Z,9.30
2022-10-20T06:09:09.344Z,8.80
2022-10-20T06:11:41.512Z,8.90
2022-10-20T06:14:13.016Z,8.20
2022-10-20T06:16:45.119Z,8.90
2022-10-20T06:19:16.543Z,12.20
2022-10-20T06:21:49.391Z,12.90
2022-10-20T06:24:22.699Z,13.40
2022-10-20T06:26:54.143Z,14.20
2022-10-20T06:29:25.802Z,13.90
2022-10-20T06:31:58.340Z,14.40
2022-10-20T06:34:29.862Z,14.10
2022-10-20T06:37:01.328Z,15.30
2022-10-20T06:39:32.790Z,16.80
2022-10-20T06:42:11.327Z,16.30
2022-10-20T06:44:43.695Z,16.90
2022-10-20T06:47:15.097Z,15.20
2022-10-20T06:49:46.536Z,13.00
2022-10-20T06:52:18.194Z,12.50
2022-10-20T06:54:49.618Z,11.20
2022-10-20T06:57:21.048Z,12.70
2022-10-20T06:59:52.472Z,12.50
2022-10-20T07:02:23.916Z,12.50
2022-10-20T07:04:55.442Z,12.90
2022-10-20T07:07:27.009Z,13.20
2022-10-20T07:09:58.607Z,15.90
2022-10-20T07:12:30.011Z,17.30
2022-10-20T07:15:01.518Z,18.80
2022-10-20T07:17:33.221Z,17.70
2022-10-20T07:20:05.311Z,18.70
2022-10-20T07:22:38.446Z,18.50
2022-10-20T07:25:11.439Z,17.10
2022-10-20T07:27:43.006Z,19.80
2022-10-20T07:30:15.704Z,16.30
2022-10-20T07:32:47.270Z,14.50
2022-10-20T07:35:18.956Z,15.70
2022-10-20T07:37:50.561Z,14.60
2022-10-20T07:40:22.158Z,13.10
2022-10-20T07:42:53.675Z,14.70
2022-10-20T07:45:25.093Z,23.10
2022-10-20T07:47:56.535Z,22.30
2022-10-20T07:50:28.536Z,11.70
2022-10-20T07:53:00.291Z,12.40
2022-10-20T07:55:38.585Z,12.50
2022-10-20T07:58:10.776Z,9.80
2022-10-20T08:00:42.219Z,8.90
2022-10-20T08:03:13.846Z,8.70
2022-10-20T08:05:45.279Z,7.90
2022-10-20T08:08:16.768Z,8.20
2022-10-20T08:10:48.250Z,7.80
2022-10-20T08:13:19.726Z,8.90
2022-10-20T08:15:52.858Z,10.50
2022-10-20T08:18:46.526Z,9.20
2022-10-20T08:21:19.455Z,7.20
2022-10-20T08:23:52.830Z,6.90
2022-10-20T08:26:27.044Z,6.40
2022-10-20T08:28:58.549Z,5.80
2022-10-20T08:31:29.992Z,5.90
2022-10-20T08:34:02.007Z,5.00
2022-10-20T08:36:33.626Z,5.30
2022-10-20T08:39:06.443Z,5.40
2022-10-20T08:42:06.331Z,6.10
2022-10-20T08:44:35.339Z,6.70
2022-10-20T08:47:15.953Z,6.40
2022-10-20T08:49:47.933Z,7.50
2022-10-20T08:52:22.959Z,6.40
2022-10-20T08:54:58.051Z,6.20
2022-10-20T08:57:35.916Z,6.00
2022-10-20T09:00:18.429Z,5.80
2022-10-20T09:02:51.534Z,6.30
2022-10-20T09:05:27.832Z,5.60
2022-10-20T09:07:59.824Z,6.80
2022-10-20T09:10:36.426Z,5.00
2022-10-20T09:13:17.555Z,4.80
2022-10-20T09:15:50.768Z,2.40
2022-10-20T09:18:23.464Z,2.30
2022-10-20T09:20:58.771Z,2.80
2022-10-20T09:23:41.223Z,3.90
2022-10-20T09:26:37.333Z,3.90
2022-10-20T09:29:15.035Z,3.00
2022-10-20T09:31:50.013Z,3.30
2022-10-20T09:34:27.597Z,3.00
2022-10-20T09:37:05.132Z,2.30
2022-10-20T09:39:44.236Z,3.20
2022-10-20T09:42:20.106Z,2.50
2022-10-20T09:44:56.079Z,2.40
2022-10-20T09:47:29.980Z,2.60
2022-10-20T09:50:05.764Z,2.70
2022-10-20T09:52:47.681Z,3.40
2022-10-20T09:55:29.124Z,2.90
2022-10-20T09:58:03.562Z,2.70
2022-10-20T10:00:38.324Z,2.20
2022-10-20T10:03:21.394Z,1.80
2022-10-20T10:05:56.446Z,1.90
2022-10-20T10:11:05.313Z,2.00
2022-10-20T10:13:43.726Z,1.90
2022-10-20T10:16:18.250Z,1.80
2022-10-20T10:18:59.807Z,2.30
2022-10-20T10:21:44.353Z,2.50
2022-10-20T10:24:38.518Z,1.70
2022-10-20T10:27:22.579Z,1.70
2022-10-20T10:29:54.695Z,1.80
2022-10-20T10:32:32.083Z,1.50
2022-10-20T10:35:18.189Z,1.20
2022-10-20T10:37:50.744Z,1.80
2022-10-20T10:40:33.843Z,1.20
2022-10-20T10:43:33.571Z,1.30
2022-10-20T10:46:09.567Z,1.20
2022-10-20T10:49:01.243Z,1.10
2022-10-20T10:51:45.909Z,1.50
2022-10-20T10:54:34.614Z,1.10
2022-10-20T10:57:14.175Z,1.00
2022-10-20T10:59:49.354Z,0.90
2022-10-20T11:02:54.540Z,0.80
2022-10-20T11:05:42.040Z,1.00
2022-10-20T11:08:25.956Z,0.90
2022-10-20T11:11:08.280Z,0.70
2022-10-20T11:13:53.189Z,0.80
2022-10-20T11:16:33.211Z,1.30
2022-10-20T11:19:37.183Z,0.70
2022-10-20T11:22:22.018Z,3.30
2022-10-20T11:25:02.581Z,1.20
2022-10-20T11:27:37.996Z,1.20
2022-10-20T11:30:19.703Z,1.20
2022-10-20T11:32:58.500Z,0.50
2022-10-20T11:35:39.865Z,0.90
2022-10-20T11:38:21.255Z,0.60
2022-10-20T11:40:58.824Z,0.60
2022-10-20T11:43:33.869Z,0.90
2022-10-20T11:46:10.658Z,0.60
2022-10-20T11:48:48.692Z,0.90
2022-10-20T11:51:45.989Z,1.70
2022-10-20T11:54:53.268Z,1.40
2022-10-20T11:57:38.375Z,1.10
2022-10-20T12:00:39.715Z,1.30
2022-10-20T12:03:47.078Z,0.80
2022-10-20T12:06:45.114Z,1.50
2022-10-20T12:09:36.422Z,0.90
2022-10-20T12:12:14.807Z,1.00
2022-10-20T12:14:50.949Z,0.80
2022-10-20T12:17:34.773Z,0.80
2022-10-20T12:20:41.185Z,1.00
2022-10-20T12:23:52.184Z,0.90
2022-10-20T12:27:00.666Z,1.40
2022-10-20T12:30:03.402Z,1.10
2022-10-20T12:32:56.042Z,0.90
2022-10-20T12:36:01.798Z,1.70
2022-10-20T12:38:33.647Z,1.30
2022-10-20T12:41:05.496Z,0.90
2022-10-20T12:43:53.062Z,1.10
2022-10-20T12:46:27.767Z,1.10
2022-10-20T12:49:03.875Z,0.90
2022-10-20T12:51:41.643Z,0.90
2022-10-20T12:54:23.835Z,0.80
2022-10-20T12:56:59.677Z,0.80
2022-10-20T12:59:47.834Z,0.90
2022-10-20T13:02:49.306Z,0.90
2022-10-20T13:05:48.777Z,2.80
2022-10-20T13:08:30.358Z,1.30
2022-10-20T13:11:33.189Z,0.90
2022-10-20T13:14:21.576Z,0.80
2022-10-20T13:17:01.822Z,1.10
2022-10-20T13:19:40.262Z,21.50
2022-10-20T13:22:37.880Z,2.60
2022-10-20T13:25:27.275Z,1.60
2022-10-20T13:28:08.480Z,1.80
2022-10-20T13:30:54.477Z,1.90
2022-10-20T13:33:58.463Z,1.80
2022-10-20T13:36:48.708Z,1.50
2022-10-20T13:39:29.416Z,2.50
2022-10-20T13:42:10.555Z,6.00
2022-10-20T13:44:54.879Z,3.90
2022-10-20T13:47:48.794Z,3.10
2022-10-20T13:50:24.376Z,2.20
2022-10-20T13:52:59.897Z,2.60
2022-10-20T13:55:52.479Z,2.80
2022-10-20T13:58:26.215Z,2.00
2022-10-20T14:01:05.591Z,2.60
2022-10-20T14:04:03.443Z,2.50
2022-10-20T14:06:38.087Z,1.90
2022-10-20T14:09:17.852Z,2.40
2022-10-20T14:11:54.102Z,1.40
2022-10-20T14:14:27.999Z,3.50
2022-10-20T14:17:02.224Z,2.70
2022-10-20T14:19:35.513Z,2.70
2022-10-20T14:22:21.365Z,2.30
2022-10-20T14:24:55.916Z,2.60
2022-10-20T14:27:31.284Z,2.80
2022-10-20T14:30:06.747Z,2.70
2022-10-20T14:32:44.307Z,3.00
2022-10-20T14:35:28.892Z,3.40
2022-10-20T14:38:04.165Z,2.60
2022-10-20T14:40:38.133Z,2.20
2022-10-20T14:43:17.921Z,2.50
2022-10-20T14:45:57.610Z,2.90
2022-10-20T14:48:34.936Z,3.20
2022-10-20T14:51:31.611Z,2.90
2022-10-20T14:54:28.113Z,2.70
2022-10-20T14:57:01.539Z,3.20
2022-10-20T14:59:36.236Z,2.50
2022-10-20T15:02:12.853Z,3.30
2022-10-20T15:04:46.448Z,4.60
2022-10-20T15:07:20.633Z,3.70
2022-10-20T15:09:54.539Z,3.30
2022-10-20T15:12:33.250Z,4.30
2022-10-20T15:15:09.253Z,3.40
2022-10-20T15:17:44.967Z,4.40
2022-10-20T15:20:37.445Z,4.10
2022-10-20T15:23:12.776Z,4.90
2022-10-20T15:25:53.199Z,4.70
2022-10-20T15:28:47.826Z,5.20
2022-10-20T15:31:24.200Z,5.20
2022-10-20T15:33:58.420Z,5.40
2022-10-20T17:55:07.509Z,16.40
2022-10-20T17:57:39.174Z,17.60
2022-10-20T18:00:19.137Z,17.90
2022-10-20T18:05:25.535Z,19.00
2022-10-20T18:07:57.061Z,18.20
2022-10-20T18:10:28.730Z,18.40
2022-10-20T18:13:01.511Z,18.40
2022-10-20T18:15:33.064Z,20.30
2022-10-20T18:18:04.709Z,19.10
2022-10-20T18:20:36.265Z,19.00
2022-10-20T18:23:08.053Z,17.30
2022-10-20T18:25:39.586Z,18.40
2022-10-20T18:28:11.029Z,16.70
2022-10-20T18:30:42.688Z,17.80
2022-10-20T18:33:14.354Z,16.20
2022-10-20T18:35:45.870Z,16.80
2022-10-20T18:38:17.547Z,17.10
2022-10-20T18:40:49.110Z,16.60
2022-10-20T18:43:20.539Z,17.00
2022-10-20T18:45:54.798Z,17.20
2022-10-20T18:48:26.258Z,17.50
2022-10-20T18:50:59.916Z,17.40
2022-10-20T18:56:03.166Z,17.60
2022-10-20T18:58:38.645Z,16.50
2022-10-20T19:01:12.411Z,16.70
2022-10-20T19:03:49.194Z,15.80
2022-10-20T19:06:23.076Z,16.60
2022-10-20T19:08:58.728Z,16.20
2022-10-20T19:11:33.006Z,15.40
2022-10-20T19:14:05.051Z,15.30
2022-10-20T19:16:38.258Z,16.00
2022-10-20T19:19:10.596Z,15.00
2022-10-20T19:21:42.336Z,15.80
2022-10-20T19:24:15.972Z,15.90
2022-10-20T19:29:38.573Z,16.00
2022-10-20T19:32:12.002Z,14.30
2022-10-20T19:34:43.461Z,15.50
2022-10-20T19:37:14.892Z,16.90
2022-10-20T19:39:46.417Z,15.30
2022-10-20T19:42:18.025Z,16.40
2022-10-20T19:44:49.556Z,16.90
2022-10-20T19:47:21.124Z,17.00
2022-10-20T19:49:52.619Z,17.00
2022-10-20T19:52:24.128Z,17.20
2022-10-20T19:54:55.594Z,17.20
2022-10-20T19:57:27.031Z,17.40
2022-10-20T19:59:58.428Z,21.00
2022-10-20T20:02:30.038Z,20.70
2022-10-20T20:05:01.488Z,23.60
2022-10-20T20:07:33.092Z,23.00
2022-10-20T20:10:05.227Z,21.60
2022-10-20T20:12:36.881Z,22.30
2022-10-20T20:15:09.341Z,20.10
2022-10-20T20:17:40.795Z,19.60
2022-10-20T20:20:12.425Z,19.10
2022-10-20T20:22:43.888Z,18.80
2022-10-20T20:25:15.604Z,16.20
2022-10-20T20:27:47.268Z,15.10
2022-10-20T20:30:18.756Z,16.20
2022-10-20T20:32:53.484Z,15.50
2022-10-20T20:35:25.846Z,14.50
2022-10-20T20:37:57.316Z,14.80
2022-10-20T20:40:28.804Z,16.10
2022-10-20T20:43:00.346Z,16.80
2022-10-20T20:45:31.771Z,16.60
2022-10-20T20:48:03.189Z,17.50
2022-10-20T20:50:34.697Z,16.90
2022-10-20T20:53:06.090Z,16.80
2022-10-20T20:55:37.713Z,16.40
2022-10-20T20:58:09.199Z,16.60
2022-10-20T21:00:40.617Z,17.00
2022-10-20T21:03:12.009Z,17.20
2022-10-20T21:05:43.935Z,16.50
2022-10-20T21:08:16.378Z,17.10
2022-10-20T21:10:47.899Z,17.80
2022-10-20T21:13:19.271Z,17.30
2022-10-20T21:15:50.703Z,15.80
2022-10-20T21:18:22.136Z,15.50
2022-10-20T21:20:53.599Z,16.00
2022-10-20T21:23:25.002Z,16.30
2022-10-20T21:25:56.484Z,16.20
2022-10-20T21:28:28.135Z,16.50
2022-10-20T21:31:00.994Z,17.80
2022-10-20T21:33:33.702Z,17.30
2022-10-20T21:36:07.242Z,17.30
2022-10-20T21:38:40.585Z,18.10
2022-10-20T21:41:14.614Z,19.10
2022-10-20T21:43:50.409Z,17.30
2022-10-20T21:46:25.547Z,18.00
2022-10-20T21:48:59.400Z,17.90
2022-10-20T21:51:33.940Z,16.60
2022-10-20T21:54:11.077Z,17.30
2022-10-20T21:56:46.844Z,17.10
2022-10-20T21:59:23.657Z,20.30
2022-10-20T22:01:58.171Z,18.20
2022-10-20T22:04:31.270Z,15.70
2022-10-20T22:07:02.804Z,14.50
2022-10-20T22:09:34.427Z,15.70
2022-10-20T22:12:06.754Z,16.10
2022-10-20T22:14:38.181Z,14.40
2022-10-20T22:17:09.582Z,14.20
2022-10-20T22:19:41.183Z,17.80
2022-10-20T22:22:12.589Z,18.30
2022-10-20T22:24:44.354Z,18.00
2022-10-20T22:27:25.290Z,19.00
2022-10-20T22:30:09.013Z,21.10
2022-10-20T22:32:40.733Z,24.70
2022-10-20T22:35:12.760Z,28.10
2022-10-20T22:37:44.181Z,27.50
2022-10-20T22:40:16.435Z,26.00
2022-10-20T22:42:47.818Z,26.90
2022-10-20T22:45:19.572Z,27.40
2022-10-20T22:47:51.002Z,24.60
2022-10-20T22:50:22.497Z,22.50
2022-10-20T22:52:53.932Z,22.50
2022-10-20T22:55:25.456Z,22.60
2022-10-20T23:00:33.376Z,23.30
2022-10-20T23:03:04.880Z,23.70
2022-10-20T23:05:36.522Z,22.60
2022-10-20T23:08:08.497Z,21.70
2022-10-20T23:10:39.942Z,22.30
2022-10-20T23:13:11.367Z,21.80
2022-10-20T23:15:50.941Z,21.30
2022-10-20T23:18:22.796Z,18.60
2022-10-20T23:20:57.341Z,18.30
2022-10-20T23:23:30.103Z,16.10
2022-10-20T23:26:04.524Z,17.40
2022-10-20T23:28:37.389Z,15.30
2022-10-20T23:31:11.169Z,14.20
2022-10-20T23:33:44.270Z,12.80
2022-10-20T23:36:16.810Z,13.70
2022-10-20T23:38:48.358Z,13.40
2022-10-20T23:41:21.288Z,14.20
2022-10-20T23:43:52.724Z,14.30
2022-10-20T23:46:24.780Z,16.20
2022-10-20T23:48:56.192Z,16.10
2022-10-20T23:51:28.065Z,19.30
2022-10-20T23:54:00.326Z,22.70
2022-10-20T23:56:31.795Z,21.80
2022-10-20T23:59:03.341Z,22.30
